Time;durP1;ratioP1;P1;durP2;ratioP2;P2;SDS_P1;SDS_P2;PMS_P1;PMS_P2;Temp;Humidity;BMP_temperature;BMP_pressure;BME280_temperature;BME280_humidity;BME280_pressure;Samples;Min_cycle;Max_cycle;Signal;HPM_P1;HPM_P2
2023/10/30 00:01:27;;;;;;;8.07;7.87;;;22.70;91.70;;;;;;5052498;28;20459;-65
2023/10/30 00:03:54;;;;;;;8.97;8.77;;;22.70;91.70;;;;;;5052675;28;20476;-65
2023/10/30 00:06:21;;;;;;;7.93;7.73;;;22.70;91.80;;;;;;5052767;28;20471;-66
2023/10/30 00:08:47;;;;;;;7.57;7.27;;;22.70;91.90;;;;;;5052553;28;20467;-66
2023/10/30 00:11:16;;;;;;;7.37;7.27;;;22.70;91.90;;;;;;5052650;28;20468;-66
2023/10/30 00:13:43;;;;;;;8.10;7.90;;;22.70;91.90;;;;;;5052521;28;20492;-66
2023/10/30 00:16:10;;;;;;;8.20;7.70;;;22.70;91.90;;;;;;5052364;28;20503;-65
2023/10/30 00:18:38;;;;;;;7.60;7.40;;;22.70;91.90;;;;;;5052396;28;21035;-67
2023/10/30 00:21:05;;;;;;;7.90;7.63;;;22.70;91.90;;;;;;5052672;28;20816;-66
2023/10/30 00:23:32;;;;;;;7.77;7.50;;;22.70;92.00;;;;;;5052062;28;20503;-66
2023/10/30 00:25:59;;;;;;;7.53;7.33;;;22.70;92.00;;;;;;5052385;28;20479;-66
2023/10/30 00:28:29;;;;;;;7.20;7.00;;;22.70;92.00;;;;;;5052002;28;20956;-65
2023/10/30 00:30:57;;;;;;;7.87;7.40;;;22.70;92.10;;;;;;5052644;28;20858;-66
2023/10/30 00:33:23;;;;;;;7.50;7.20;;;22.70;92.10;;;;;;5048980;28;20897;-66
2023/10/30 00:35:50;;;;;;;7.77;7.53;;;22.60;92.30;;;;;;5052242;28;20511;-65
2023/10/30 00:38:17;;;;;;;8.20;8.00;;;22.60;92.00;;;;;;5052236;28;20480;-65
2023/10/30 00:40:44;;;;;;;7.93;7.43;;;22.60;92.00;;;;;;5052065;28;20483;-66
2023/10/30 00:43:11;;;;;;;7.30;7.10;;;22.60;92.00;;;;;;5051903;28;20496;-65
2023/10/30 00:45:39;;;;;;;8.07;7.77;;;22.60;91.90;;;;;;5051819;28;20448;-66
2023/10/30 00:48:07;;;;;;;7.53;7.33;;;22.60;91.90;;;;;;5051863;28;20476;-65
2023/10/30 00:50:34;;;;;;;7.40;7.20;;;22.60;91.90;;;;;;5052069;28;20476;-65
2023/10/30 00:53:01;;;;;;;7.70;7.50;;;22.60;91.90;;;;;;5051774;28;20510;-66
2023/10/30 00:55:28;;;;;;;8.07;7.67;;;22.60;92.00;;;;;;5051728;28;20572;-66
2023/10/30 00:57:55;;;;;;;8.00;7.80;;;22.60;92.00;;;;;;5052087;28;20475;-65
2023/10/30 01:00:22;;;;;;;8.10;7.80;;;22.60;92.00;;;;;;5051568;28;20480;-65
2023/10/30 01:02:50;;;;;;;7.30;7.20;;;22.60;92.00;;;;;;5051400;28;20484;-66
2023/10/30 01:05:17;;;;;;;7.63;7.43;;;22.60;92.00;;;;;;5051667;28;20481;-65
2023/10/30 01:07:44;;;;;;;7.67;7.47;;;22.60;92.00;;;;;;5051687;28;20475;-65
2023/10/30 01:10:11;;;;;;;7.63;7.43;;;22.60;92.00;;;;;;5051758;28;20858;-65
2023/10/30 01:12:38;;;;;;;7.80;7.60;;;22.60;92.10;;;;;;5051352;28;20496;-66
2023/10/30 01:15:06;;;;;;;7.60;7.40;;;22.60;92.00;;;;;;5051703;28;20519;-66
2023/10/30 01:17:33;;;;;;;7.80;7.60;;;22.60;92.10;;;;;;5051441;28;20444;-66
2023/10/30 01:20:03;;;;;;;7.60;7.40;;;22.60;92.10;;;;;;5051182;28;20492;-66
2023/10/30 01:22:30;;;;;;;7.70;7.50;;;22.60;92.10;;;;;;5050562;28;20488;-66
2023/10/30 01:24:57;;;;;;;7.53;7.33;;;22.60;92.10;;;;;;5051772;28;20528;-66
2023/10/30 01:27:25;;;;;;;8.00;7.70;;;22.50;92.00;;;;;;5051007;28;20448;-66
2023/10/30 01:29:52;;;;;;;7.60;7.40;;;22.50;92.10;;;;;;5051435;28;21003;-66
2023/10/30 01:32:18;;;;;;;7.07;6.97;;;22.50;92.00;;;;;;5050990;28;20919;-66
2023/10/30 01:34:45;;;;;;;7.13;7.00;;;22.50;92.10;;;;;;5050666;28;20906;-66
2023/10/30 01:37:13;;;;;;;7.60;7.40;;;22.50;92.10;;;;;;5051181;28;20444;-66
2023/10/30 01:39:43;;;;;;;7.57;7.37;;;22.50;92.10;;;;;;5051050;28;21009;-66
2023/10/30 01:42:10;;;;;;;8.53;8.33;;;22.50;92.20;;;;;;5051347;28;20478;-66
2023/10/30 01:44:54;;;;;;;9.30;9.00;;;22.50;92.10;;;;;;5050954;28;20483;-65
2023/10/30 01:47:21;;;;;;;8.03;7.83;;;22.50;92.20;;;;;;5051010;28;20973;-66
2023/10/30 01:49:48;;;;;;;8.53;8.33;;;22.50;92.20;;;;;;5051159;28;20474;-66
2023/10/30 01:52:17;;;;;;;8.73;8.53;;;22.50;92.20;;;;;;5051009;28;20503;-66
2023/10/30 01:54:46;;;;;;;8.40;8.20;;;22.50;92.20;;;;;;5050971;28;20472;-66
2023/10/30 01:57:14;;;;;;;8.53;8.33;;;22.50;92.10;;;;;;5050784;28;20507;-66
2023/10/30 01:59:42;;;;;;;8.00;7.80;;;22.50;92.10;;;;;;5050759;28;20480;-66
2023/10/30 02:02:09;;;;;;;8.10;7.90;;;22.50;92.10;;;;;;5050959;28;20503;-66
2023/10/30 02:04:37;;;;;;;8.27;8.07;;;22.50;92.10;;;;;;5050720;28;20497;-66
2023/10/30 02:07:04;;;;;;;8.00;7.80;;;22.50;92.10;;;;;;5050926;28;20479;-66
2023/10/30 02:09:33;;;;;;;8.40;8.20;;;22.50;92.20;;;;;;5050688;28;20443;-66
2023/10/30 02:12:00;;;;;;;8.03;7.83;;;22.50;92.10;;;;;;5044408;28;20502;-66
2023/10/30 02:14:28;;;;;;;8.43;8.23;;;22.50;92.20;;;;;;5050799;28;20455;-65
2023/10/30 02:16:55;;;;;;;9.37;9.17;;;22.50;92.20;;;;;;5050795;28;20507;-66
2023/10/30 02:19:23;;;;;;;9.50;9.13;;;22.50;92.20;;;;;;5050987;28;20491;-66
2023/10/30 02:21:52;;;;;;;8.00;7.80;;;22.40;92.20;;;;;;5043485;28;20999;-65
2023/10/30 02:24:19;;;;;;;8.30;8.10;;;22.50;92.20;;;;;;5050713;28;20449;-65
2023/10/30 02:26:47;;;;;;;8.70;8.40;;;22.50;92.20;;;;;;5050656;28;20460;-66
2023/10/30 02:29:14;;;;;;;8.50;8.17;;;22.40;92.20;;;;;;5051227;28;20468;-65
2023/10/30 02:31:41;;;;;;;7.90;7.70;;;22.40;92.20;;;;;;5050487;28;20495;-65
2023/10/30 02:34:08;;;;;;;8.23;8.03;;;22.40;92.30;;;;;;5053602;28;20494;-65
2023/10/30 02:36:35;;;;;;;8.67;8.47;;;22.40;92.30;;;;;;5054401;28;20837;-65
2023/10/30 02:39:03;;;;;;;7.90;7.60;;;22.40;92.40;;;;;;5054471;28;20446;-66
2023/10/30 02:41:31;;;;;;;8.17;7.87;;;22.40;92.40;;;;;;5054121;28;20566;-65
2023/10/30 02:44:00;;;;;;;7.63;7.43;;;22.40;92.50;;;;;;5054208;28;20455;-66
2023/10/30 02:46:27;;;;;;;7.90;7.70;;;22.40;92.50;;;;;;5050910;28;20827;-65
2023/10/30 02:48:54;;;;;;;8.60;8.30;;;22.40;92.50;;;;;;5054485;28;20444;-65
2023/10/30 02:51:21;;;;;;;8.40;8.20;;;22.40;92.50;;;;;;5054076;28;20442;-65
2023/10/30 02:53:48;;;;;;;8.37;8.07;;;22.40;92.50;;;;;;5077850;22;21021;-68
2023/10/30 02:56:15;;;;;;;7.80;7.60;;;22.40;92.50;;;;;;5050458;28;20492;-69
2023/10/30 02:58:42;;;;;;;7.60;7.40;;;22.50;92.60;;;;;;5054141;28;20436;-69
2023/10/30 03:01:10;;;;;;;8.23;8.03;;;22.40;92.60;;;;;;5048398;28;20487;-68
2023/10/30 03:03:38;;;;;;;8.83;8.53;;;22.40;92.50;;;;;;5052210;28;20491;-68
2023/10/30 03:06:06;;;;;;;9.63;9.23;;;22.40;92.50;;;;;;5054005;28;20453;-68
2023/10/30 03:08:32;;;;;;;8.13;7.93;;;22.40;92.50;;;;;;5053840;28;20857;-69
2023/10/30 03:10:59;;;;;;;8.50;8.30;;;22.40;92.50;;;;;;5053850;28;20480;-69
2023/10/30 03:13:26;;;;;;;9.10;8.90;;;22.40;92.40;;;;;;5053497;28;20503;-69
2023/10/30 03:15:53;;;;;;;8.00;7.87;;;22.40;92.40;;;;;;5053629;28;20504;-69
2023/10/30 03:18:21;;;;;;;9.50;9.10;;;22.40;92.30;;;;;;5053840;28;20475;-68
2023/10/30 03:20:48;;;;;;;9.03;8.73;;;22.40;92.30;;;;;;5053511;28;20448;-68
2023/10/30 03:23:15;;;;;;;8.83;8.57;;;22.40;92.40;;;;;;5053644;28;20484;-69
2023/10/30 03:25:43;;;;;;;8.43;8.23;;;22.40;92.40;;;;;;5053388;28;20883;-68
2023/10/30 03:28:10;;;;;;;8.10;7.80;;;22.40;92.50;;;;;;5053381;28;20480;-69
2023/10/30 03:30:37;;;;;;;8.60;8.40;;;22.40;92.50;;;;;;5053244;28;20947;-68
2023/10/30 03:33:04;;;;;;;9.07;8.87;;;22.40;92.50;;;;;;5053427;28;20496;-68
2023/10/30 03:35:38;;;;;;;8.70;8.40;;;22.40;92.70;;;;;;5053285;28;20472;-69
2023/10/30 03:38:05;;;;;;;8.00;7.90;;;22.40;92.50;;;;;;5053385;28;20444;-68
2023/10/30 03:40:32;;;;;;;8.50;8.30;;;22.40;92.50;;;;;;5053024;28;20892;-68
2023/10/30 03:42:59;;;;;;;8.90;8.67;;;22.30;92.50;;;;;;5052885;28;20500;-68
2023/10/30 03:45:26;;;;;;;8.30;8.20;;;22.40;92.50;;;;;;5049140;28;20955;-68
2023/10/30 03:47:53;;;;;;;9.63;9.30;;;22.40;92.50;;;;;;5053419;28;21140;-68
2023/10/30 03:50:20;;;;;;;9.13;8.93;;;22.40;92.60;;;;;;5053649;28;20856;-68
2023/10/30 03:52:48;;;;;;;8.07;7.87;;;22.40;92.70;;;;;;5052761;28;20475;-68
2023/10/30 03:55:15;;;;;;;8.17;8.07;;;22.40;92.70;;;;;;5053180;28;20475;-68
2023/10/30 03:57:43;;;;;;;8.63;8.43;;;22.40;92.70;;;;;;5052482;28;20511;-68
2023/10/30 04:00:12;;;;;;;8.50;8.20;;;22.40;92.80;;;;;;5053090;28;20440;-68
2023/10/30 04:02:39;;;;;;;8.90;8.50;;;22.40;92.70;;;;;;5050877;28;20526;-68
2023/10/30 04:05:07;;;;;;;9.47;9.17;;;22.40;92.70;;;;;;5053017;28;20432;-68
2023/10/30 04:07:34;;;;;;;9.43;9.10;;;22.40;92.60;;;;;;5052816;28;20472;-68
2023/10/30 04:10:02;;;;;;;9.33;9.03;;;22.40;92.60;;;;;;5052908;28;20494;-68
2023/10/30 04:12:29;;;;;;;7.60;7.40;;;22.40;92.60;;;;;;5052504;28;20885;-68
2023/10/30 04:14:56;;;;;;;8.67;8.47;;;22.40;92.70;;;;;;5052854;28;20472;-68
2023/10/30 04:17:23;;;;;;;7.80;7.60;;;22.40;92.80;;;;;;5048620;28;20471;-68
2023/10/30 04:19:50;;;;;;;7.90;7.80;;;22.50;93.00;;;;;;5052486;28;20960;-68
2023/10/30 04:22:16;;;;;;;9.27;9.07;;;22.50;93.10;;;;;;5052191;28;20504;-69
2023/10/30 04:24:43;;;;;;;8.60;8.40;;;22.50;93.00;;;;;;5052132;28;20471;-68
2023/10/30 04:27:12;;;;;;;8.60;8.40;;;22.50;92.90;;;;;;5052566;28;20468;-68
2023/10/30 04:29:40;;;;;;;9.60;9.30;;;22.50;93.00;;;;;;5052185;28;20503;-69
2023/10/30 04:32:07;;;;;;;9.40;9.10;;;22.50;93.10;;;;;;5052005;28;20555;-69
2023/10/30 04:34:34;;;;;;;9.10;8.80;;;22.50;93.00;;;;;;5051716;28;20480;-69
2023/10/30 04:37:00;;;;;;;10.67;10.27;;;22.50;93.00;;;;;;5052110;28;20572;-68
2023/10/30 04:39:27;;;;;;;8.90;8.70;;;22.50;93.10;;;;;;5052154;28;20502;-68
2023/10/30 04:41:55;;;;;;;9.87;9.57;;;22.50;93.20;;;;;;5052221;28;20472;-68
2023/10/30 04:44:24;;;;;;;9.43;9.23;;;22.50;93.10;;;;;;5052377;28;20449;-68
2023/10/30 04:46:51;;;;;;;9.87;9.57;;;22.50;93.00;;;;;;5052283;28;20447;-68
2023/10/30 04:49:18;;;;;;;9.60;9.30;;;22.50;93.10;;;;;;5052379;28;20510;-69
2023/10/30 04:51:44;;;;;;;9.47;9.27;;;22.50;92.90;;;;;;5051849;28;20476;-68
2023/10/30 04:54:11;;;;;;;9.40;9.20;;;22.50;92.90;;;;;;5051938;28;20471;-68
2023/10/30 04:56:38;;;;;;;9.50;9.13;;;22.60;93.00;;;;;;5050824;28;20538;-69
2023/10/30 04:59:05;;;;;;;9.37;9.07;;;22.50;93.10;;;;;;5051804;28;20488;-68
2023/10/30 05:01:33;;;;;;;10.37;10.07;;;22.50;93.20;;;;;;5052069;28;20484;-68
2023/10/30 05:04:02;;;;;;;10.23;9.70;;;22.50;93.20;;;;;;5051788;28;20460;-68
2023/10/30 05:06:30;;;;;;;10.83;10.53;;;22.50;93.00;;;;;;5051758;28;20491;-68
2023/10/30 05:08:56;;;;;;;14.10;11.50;;;22.60;93.10;;;;;;5047981;28;20491;-68
2023/10/30 05:11:23;;;;;;;13.50;12.70;;;22.60;93.10;;;;;;5051807;28;20472;-68
2023/10/30 05:13:50;;;;;;;14.00;12.90;;;22.60;92.90;;;;;;5051742;28;20862;-68
2023/10/30 05:16:17;;;;;;;13.90;12.60;;;22.60;93.30;;;;;;5051785;28;20515;-68
2023/10/30 05:18:45;;;;;;;15.27;11.77;;;22.60;94.30;;;;;;5051756;28;20475;-68
2023/10/30 05:21:12;;;;;;;13.10;11.10;;;22.60;94.70;;;;;;5049345;28;20471;-67
2023/10/30 05:23:39;;;;;;;13.87;10.50;;;22.60;95.30;;;;;;5052636;28;20735;-67
2023/10/30 05:26:06;;;;;;;16.67;11.67;;;22.60;95.00;;;;;;5051102;28;20453;-67
2023/10/30 05:28:33;;;;;;;11.37;10.33;;;22.70;95.10;;;;;;5051506;28;20483;-67
2023/10/30 05:31:05;;;;;;;12.53;11.13;;;22.70;95.10;;;;;;5053637;28;20445;-67
2023/10/30 05:33:32;;;;;;;10.67;9.90;;;22.70;95.00;;;;;;5053460;28;20495;-66
2023/10/30 05:36:00;;;;;;;10.97;9.87;;;22.80;94.90;;;;;;5053225;28;20867;-67
2023/10/30 05:38:27;;;;;;;14.73;11.17;;;22.80;94.80;;;;;;5053180;28;20554;-66
2023/10/30 05:40:54;;;;;;;11.63;10.43;;;22.80;94.70;;;;;;5052906;28;20486;-67
2023/10/30 05:43:21;;;;;;;11.40;10.40;;;22.80;94.50;;;;;;5053486;28;20494;-67
2023/10/30 05:45:48;;;;;;;12.27;10.70;;;22.80;94.50;;;;;;5053104;28;20522;-67
2023/10/30 05:48:15;;;;;;;10.47;9.97;;;22.80;94.30;;;;;;5052433;28;20462;-67
2023/10/30 05:50:42;;;;;;;11.80;11.10;;;22.90;94.20;;;;;;5051401;28;20475;-67
2023/10/30 05:53:10;;;;;;;11.30;9.60;;;22.90;94.10;;;;;;5051470;28;20499;-66
2023/10/30 05:55:37;;;;;;;10.97;10.10;;;22.90;94.00;;;;;;5051044;28;20487;-67
2023/10/30 05:58:04;;;;;;;12.13;11.23;;;22.90;93.90;;;;;;5051281;28;20472;-67
2023/10/30 06:00:31;;;;;;;9.73;9.20;;;22.90;93.80;;;;;;5051321;28;20476;-67
2023/10/30 06:02:58;;;;;;;9.33;8.63;;;23.00;93.80;;;;;;5042890;28;20533;-66
2023/10/30 06:05:25;;;;;;;10.10;9.10;;;23.00;93.70;;;;;;5050970;28;20473;-67
2023/10/30 06:07:52;;;;;;;10.10;9.30;;;23.00;93.60;;;;;;5051836;28;20447;-67
2023/10/30 06:10:23;;;;;;;9.50;8.90;;;23.00;93.50;;;;;;5055077;28;20482;-67
2023/10/30 06:12:50;;;;;;;9.47;8.87;;;23.00;93.40;;;;;;5054885;28;20475;-67
2023/10/30 06:15:17;;;;;;;9.93;9.20;;;23.00;93.30;;;;;;5054905;28;20444;-67
2023/10/30 06:17:44;;;;;;;10.30;9.60;;;23.00;93.30;;;;;;5054637;28;21070;-67
2023/10/30 06:20:12;;;;;;;10.63;10.13;;;23.10;93.30;;;;;;5054992;28;20476;-67
2023/10/30 06:22:39;;;;;;;10.37;9.57;;;23.10;93.20;;;;;;5054569;28;20492;-67
2023/10/30 06:25:06;;;;;;;11.63;10.70;;;23.10;93.20;;;;;;5054789;28;20515;-67
2023/10/30 06:27:35;;;;;;;10.60;10.00;;;23.10;93.10;;;;;;5054641;28;20448;-67
2023/10/30 06:30:02;;;;;;;11.77;11.10;;;23.10;93.00;;;;;;5054750;28;20440;-67
2023/10/30 06:32:29;;;;;;;10.60;9.83;;;23.10;92.90;;;;;;5054581;28;20460;-67
2023/10/30 06:34:57;;;;;;;11.50;10.70;;;23.10;92.90;;;;;;5054384;28;20494;-67
2023/10/30 06:37:23;;;;;;;11.03;10.43;;;23.10;92.80;;;;;;5054469;28;20507;-67
2023/10/30 06:39:50;;;;;;;10.77;10.13;;;23.20;92.80;;;;;;5054388;28;20468;-67
2023/10/30 06:42:18;;;;;;;11.70;11.17;;;23.20;92.70;;;;;;5054399;28;20467;-67
2023/10/30 06:44:46;;;;;;;11.73;10.33;;;23.20;92.70;;;;;;5054341;28;20472;-67
2023/10/30 06:47:13;;;;;;;11.30;10.80;;;23.20;92.60;;;;;;5054288;28;20468;-67
2023/10/30 06:49:40;;;;;;;11.37;10.87;;;23.20;92.60;;;;;;5054123;28;20444;-67
2023/10/30 06:52:07;;;;;;;10.17;9.77;;;23.20;92.50;;;;;;5054034;28;20491;-67
2023/10/30 06:54:34;;;;;;;11.27;10.50;;;23.30;92.60;;;;;;5054178;28;20448;-67
2023/10/30 06:57:01;;;;;;;11.57;10.77;;;23.20;92.50;;;;;;5054064;28;20523;-66
2023/10/30 06:59:28;;;;;;;10.60;9.90;;;23.30;92.50;;;;;;5054106;28;20855;-66
2023/10/30 07:01:56;;;;;;;10.43;9.90;;;23.30;92.40;;;;;;5053860;28;20853;-67
2023/10/30 07:04:24;;;;;;;9.70;9.20;;;23.30;92.40;;;;;;5053896;28;20479;-67
2023/10/30 07:06:51;;;;;;;10.53;10.00;;;23.30;92.30;;;;;;5053957;28;20444;-67
2023/10/30 07:09:19;;;;;;;10.93;10.40;;;23.30;92.30;;;;;;5053904;28;20450;-67
2023/10/30 07:11:46;;;;;;;10.10;9.70;;;23.30;92.30;;;;;;5053692;28;20510;-67
2023/10/30 07:14:13;;;;;;;11.03;10.33;;;23.30;92.20;;;;;;5054028;28;20476;-67
2023/10/30 07:16:40;;;;;;;10.03;9.63;;;23.30;92.20;;;;;;5053573;28;20502;-67
2023/10/30 07:19:09;;;;;;;10.10;9.60;;;23.40;92.20;;;;;;5052941;28;20472;-66
2023/10/30 07:21:35;;;;;;;11.30;10.67;;;23.40;92.20;;;;;;5053461;28;20448;-66
2023/10/30 07:24:02;;;;;;;10.60;10.20;;;23.40;92.20;;;;;;5053668;28;21003;-67
2023/10/30 07:26:29;;;;;;;11.30;10.80;;;23.40;92.10;;;;;;5053653;28;20484;-67
2023/10/30 07:28:56;;;;;;;14.23;13.73;;;23.40;92.10;;;;;;5053387;28;20464;-66
2023/10/30 07:31:23;;;;;;;12.33;11.77;;;23.40;92.00;;;;;;5053367;28;20448;-67
2023/10/30 07:33:50;;;;;;;10.97;10.60;;;23.50;92.00;;;;;;5053188;28;20506;-66
2023/10/30 07:36:18;;;;;;;11.47;11.00;;;23.40;92.00;;;;;;5053333;28;20444;-67
2023/10/30 07:38:45;;;;;;;10.30;9.90;;;23.50;91.90;;;;;;5053128;28;21029;-67
2023/10/30 07:41:12;;;;;;;11.43;11.07;;;23.50;91.90;;;;;;5053496;28;20834;-67
2023/10/30 07:43:39;;;;;;;11.03;10.40;;;23.50;91.90;;;;;;5053076;28;20499;-67
2023/10/30 07:46:06;;;;;;;11.40;10.90;;;23.50;91.80;;;;;;5053163;28;20480;-67
2023/10/30 07:48:33;;;;;;;10.83;10.30;;;23.50;91.80;;;;;;5053133;28;20440;-67
2023/10/30 07:51:02;;;;;;;11.30;10.60;;;23.50;91.80;;;;;;5053075;28;20468;-66
2023/10/30 07:53:32;;;;;;;10.43;10.03;;;23.50;91.70;;;;;;5052688;28;20506;-66
2023/10/30 07:55:59;;;;;;;10.90;10.50;;;23.50;91.70;;;;;;5052862;28;20490;-66
2023/10/30 07:58:26;;;;;;;10.37;9.73;;;23.60;91.80;;;;;;5052821;28;21007;-66
2023/10/30 08:00:53;;;;;;;10.40;10.10;;;23.60;91.70;;;;;;5053014;28;20451;-67
2023/10/30 08:03:20;;;;;;;10.43;10.03;;;23.60;91.70;;;;;;5052693;28;20499;-67
2023/10/30 08:05:47;;;;;;;10.20;9.70;;;23.60;91.60;;;;;;5052582;28;20502;-66
2023/10/30 08:08:17;;;;;;;10.50;10.13;;;23.60;91.60;;;;;;5052857;28;20468;-67
2023/10/30 08:10:45;;;;;;;11.80;11.30;;;23.60;91.60;;;;;;5052727;28;20502;-67
2023/10/30 08:13:12;;;;;;;10.27;9.87;;;23.60;91.50;;;;;;5052567;28;20496;-67
2023/10/30 08:15:39;;;;;;;10.40;10.00;;;23.60;91.50;;;;;;5052438;28;20973;-67
2023/10/30 08:18:06;;;;;;;10.30;9.93;;;23.60;91.50;;;;;;5052484;28;20527;-67
2023/10/30 08:20:33;;;;;;;10.30;10.00;;;23.60;91.40;;;;;;5052521;28;20468;-67
2023/10/30 08:23:00;;;;;;;11.33;10.87;;;23.60;91.40;;;;;;5052248;28;20595;-66
2023/10/30 08:25:27;;;;;;;9.80;9.60;;;23.70;91.40;;;;;;5052366;28;20451;-67
2023/10/30 08:27:57;;;;;;;10.90;10.40;;;23.70;91.40;;;;;;5052379;28;20444;-67
2023/10/30 08:30:25;;;;;;;10.83;10.43;;;23.70;91.40;;;;;;5052479;28;20531;-66
2023/10/30 08:32:52;;;;;;;10.67;10.27;;;23.70;91.30;;;;;;5051953;28;20464;-67
2023/10/30 08:35:18;;;;;;;11.77;11.33;;;23.70;91.30;;;;;;5052311;28;20480;-67
2023/10/30 08:37:45;;;;;;;11.30;10.83;;;23.70;91.30;;;;;;5052302;28;20519;-66
2023/10/30 08:40:13;;;;;;;11.53;11.07;;;23.70;91.20;;;;;;5052396;28;20464;-67
2023/10/30 08:42:40;;;;;;;11.23;10.63;;;23.70;91.20;;;;;;5051922;28;20871;-67
2023/10/30 08:45:09;;;;;;;10.80;10.40;;;23.70;91.20;;;;;;5052193;28;20472;-67
2023/10/30 08:47:36;;;;;;;10.83;10.43;;;23.70;91.10;;;;;;5051953;28;20924;-66
2023/10/30 08:50:03;;;;;;;10.80;10.40;;;23.70;91.10;;;;;;5051835;28;20467;-66
2023/10/30 08:52:30;;;;;;;11.13;10.67;;;23.80;91.20;;;;;;5052198;28;20513;-67
2023/10/30 08:54:57;;;;;;;11.77;11.37;;;23.70;91.10;;;;;;5051847;28;20479;-67
2023/10/30 08:57:24;;;;;;;10.03;9.73;;;23.80;91.10;;;;;;5051712;28;20966;-67
2023/10/30 08:59:51;;;;;;;10.40;10.10;;;23.70;91.00;;;;;;5051905;28;20456;-68
2023/10/30 09:02:19;;;;;;;11.57;11.20;;;23.80;91.10;;;;;;5051681;28;20464;-67
2023/10/30 09:04:46;;;;;;;12.13;11.63;;;23.80;91.00;;;;;;5051671;28;20472;-67
2023/10/30 09:07:13;;;;;;;10.77;10.37;;;23.80;91.00;;;;;;5052065;28;20739;-66
2023/10/30 09:09:40;;;;;;;10.70;10.40;;;23.80;91.00;;;;;;5051578;28;20955;-66
2023/10/30 09:12:08;;;;;;;11.80;11.40;;;23.80;90.90;;;;;;5051638;28;20586;-66
2023/10/30 09:14:35;;;;;;;10.80;10.50;;;23.80;91.00;;;;;;5051698;28;20856;-66
2023/10/30 09:17:02;;;;;;;10.30;10.00;;;23.80;90.90;;;;;;5051497;28;20483;-66
2023/10/30 09:19:30;;;;;;;12.00;11.70;;;23.80;90.90;;;;;;5051680;28;20472;-66
2023/10/30 09:21:57;;;;;;;11.00;10.70;;;23.80;90.90;;;;;;5051801;28;20475;-66
2023/10/30 09:24:24;;;;;;;10.87;10.47;;;23.80;90.90;;;;;;5051430;28;20472;-66
2023/10/30 09:26:51;;;;;;;11.13;10.73;;;23.80;90.80;;;;;;5051615;28;20478;-67
2023/10/30 09:29:17;;;;;;;10.90;10.50;;;23.80;90.80;;;;;;5051731;28;20467;-66
2023/10/30 09:31:45;;;;;;;11.63;11.23;;;23.80;90.80;;;;;;5051083;28;20475;-66
2023/10/30 09:34:12;;;;;;;11.20;10.90;;;23.80;90.80;;;;;;5051364;28;20464;-67
2023/10/30 09:36:40;;;;;;;11.50;11.20;;;23.90;90.80;;;;;;5051413;28;20440;-66
2023/10/30 09:39:07;;;;;;;10.90;10.60;;;23.90;90.80;;;;;;5043125;28;20555;-66
2023/10/30 09:41:39;;;;;;;10.90;10.50;;;23.90;90.80;;;;;;5051579;28;20440;-66
2023/10/30 09:44:09;;;;;;;10.80;10.40;;;23.90;90.80;;;;;;5050786;28;20491;-66
2023/10/30 09:46:38;;;;;;;10.50;10.10;;;23.90;90.70;;;;;;5051369;28;20502;-67
2023/10/30 09:49:06;;;;;;;10.63;10.33;;;23.90;90.70;;;;;;5051154;28;20460;-66
2023/10/30 09:51:35;;;;;;;11.00;10.70;;;23.90;90.70;;;;;;5051181;28;20472;-66
2023/10/30 09:54:04;;;;;;;12.77;12.20;;;23.90;90.70;;;;;;5050856;28;20500;-66
2023/10/30 09:56:32;;;;;;;10.70;10.40;;;23.90;90.70;;;;;;5051126;28;20479;-66
2023/10/30 09:58:59;;;;;;;11.10;10.80;;;23.90;90.70;;;;;;5051132;28;20480;-66
2023/10/30 10:01:27;;;;;;;10.67;10.37;;;23.90;90.60;;;;;;5051028;28;20440;-66
2023/10/30 10:03:54;;;;;;;11.33;11.03;;;23.90;90.60;;;;;;5050905;28;20496;-66
2023/10/30 10:06:21;;;;;;;11.77;11.27;;;23.90;90.60;;;;;;5051186;28;20476;-66
2023/10/30 10:08:48;;;;;;;10.70;10.30;;;24.00;90.60;;;;;;5050941;28;20491;-67
2023/10/30 10:11:20;;;;;;;10.50;10.20;;;24.00;90.60;;;;;;5051180;28;20479;-66
2023/10/30 10:13:48;;;;;;;10.90;10.60;;;24.00;90.60;;;;;;5050888;28;20491;-66
2023/10/30 10:16:15;;;;;;;10.60;10.40;;;24.00;90.60;;;;;;5051000;28;20531;-66
2023/10/30 10:18:42;;;;;;;9.97;9.77;;;24.00;90.60;;;;;;5051030;28;20563;-66
2023/10/30 10:21:11;;;;;;;10.43;10.13;;;24.00;90.60;;;;;;5050852;28;20472;-65
2023/10/30 10:23:39;;;;;;;10.47;10.17;;;24.00;90.50;;;;;;5050890;28;20510;-66
2023/10/30 10:26:13;;;;;;;10.33;10.03;;;24.00;90.50;;;;;;5050927;28;20441;-66
2023/10/30 10:28:42;;;;;;;10.23;9.93;;;24.00;90.50;;;;;;5051140;28;20443;-66
2023/10/30 10:31:09;;;;;;;10.43;10.13;;;24.00;90.50;;;;;;5042906;28;20997;-66
2023/10/30 10:33:37;;;;;;;10.10;9.90;;;24.00;90.50;;;;;;5050904;28;20468;-67
2023/10/30 10:36:06;;;;;;;11.50;11.10;;;24.00;90.50;;;;;;5050806;28;20479;-66
2023/10/30 10:38:33;;;;;;;10.80;10.50;;;24.00;90.50;;;;;;5050854;28;20862;-67
2023/10/30 10:41:00;;;;;;;10.90;10.50;;;24.10;90.50;;;;;;5050805;28;20472;-67
2023/10/30 10:43:29;;;;;;;10.93;10.63;;;24.10;90.50;;;;;;5050917;28;20495;-66
2023/10/30 10:45:58;;;;;;;10.50;10.30;;;24.10;90.50;;;;;;5050672;28;20472;-66
2023/10/30 10:48:27;;;;;;;10.73;10.43;;;24.10;90.50;;;;;;5050802;28;20923;-67
2023/10/30 10:50:55;;;;;;;11.00;10.70;;;24.10;90.50;;;;;;5050739;28;20471;-67
2023/10/30 10:53:22;;;;;;;10.70;10.50;;;24.10;90.40;;;;;;5050306;28;20467;-66
2023/10/30 10:55:50;;;;;;;10.87;10.60;;;24.10;90.40;;;;;;5052998;28;20906;-66
2023/10/30 10:58:21;;;;;;;11.03;10.73;;;24.10;90.40;;;;;;5054266;28;20568;-67
2023/10/30 11:00:50;;;;;;;10.90;10.60;;;24.10;90.40;;;;;;5054313;28;20946;-67
2023/10/30 11:03:18;;;;;;;11.00;10.70;;;24.10;90.40;;;;;;5054123;28;20503;-66
2023/10/30 11:05:49;;;;;;;11.20;10.90;;;24.10;90.40;;;;;;5053945;28;20475;-67
2023/10/30 11:08:29;;;;;;;10.40;10.10;;;24.10;90.40;;;;;;5054207;28;20525;-66
2023/10/30 11:11:04;;;;;;;10.23;10.03;;;24.20;90.40;;;;;;5053947;28;20957;-66
2023/10/30 11:13:40;;;;;;;9.97;9.60;;;24.10;90.30;;;;;;5053924;28;20487;-67
2023/10/30 11:16:13;;;;;;;10.23;10.03;;;24.10;90.30;;;;;;5053696;28;20455;-67
2023/10/30 11:18:41;;;;;;;10.80;10.50;;;24.10;90.30;;;;;;5053760;28;21090;-68
2023/10/30 11:21:10;;;;;;;10.30;10.10;;;24.20;90.40;;;;;;5053563;28;20491;-66
2023/10/30 11:23:54;;;;;;;10.03;9.83;;;24.20;90.40;;;;;;5053506;28;20469;-67
2023/10/30 11:26:40;;;;;;;11.00;10.50;;;24.20;90.40;;;;;;5046760;28;20452;-67
2023/10/30 11:29:11;;;;;;;11.20;10.90;;;24.10;90.30;;;;;;5053515;28;20440;-66
2023/10/30 11:31:55;;;;;;;11.20;10.90;;;24.20;90.30;;;;;;5053669;28;20444;-67
2023/10/30 11:34:31;;;;;;;10.50;10.30;;;24.20;90.40;;;;;;5046823;28;20785;-67
2023/10/30 11:37:07;;;;;;;11.20;10.87;;;24.20;90.30;;;;;;5053394;28;20440;-67
2023/10/30 11:39:36;;;;;;;10.70;10.40;;;24.20;90.30;;;;;;5053381;28;21111;-67
2023/10/30 11:42:04;;;;;;;11.40;11.10;;;24.10;90.30;;;;;;5053299;28;20488;-67
2023/10/30 11:44:32;;;;;;;10.47;10.27;;;24.20;90.30;;;;;;5053385;28;20823;-66
2023/10/30 11:46:59;;;;;;;10.60;10.30;;;24.20;90.30;;;;;;5053149;28;20455;-66
2023/10/30 11:49:32;;;;;;;9.90;9.70;;;24.20;90.30;;;;;;5053169;28;20518;-66
2023/10/30 11:52:00;;;;;;;10.50;10.10;;;24.20;90.30;;;;;;5052919;28;20483;-66
2023/10/30 11:54:33;;;;;;;9.87;9.57;;;24.20;90.20;;;;;;5053298;28;20440;-66
2023/10/30 11:57:01;;;;;;;9.93;9.73;;;24.20;90.20;;;;;;5053027;28;20449;-68
2023/10/30 11:59:28;;;;;;;9.73;9.43;;;24.20;90.20;;;;;;5053181;28;20500;-67
2023/10/30 12:01:56;;;;;;;9.00;8.80;;;24.20;90.20;;;;;;5052683;28;20479;-67
2023/10/30 12:04:24;;;;;;;8.87;8.67;;;24.20;90.20;;;;;;5052896;28;20448;-67
2023/10/30 12:06:52;;;;;;;10.40;10.20;;;24.20;90.20;;;;;;5052333;28;20993;-67
2023/10/30 12:09:20;;;;;;;10.00;9.80;;;24.20;90.20;;;;;;5052953;28;20468;-67
2023/10/30 12:11:49;;;;;;;9.40;9.20;;;24.20;90.20;;;;;;5052726;28;20472;-68
2023/10/30 12:14:17;;;;;;;9.40;9.20;;;24.20;90.10;;;;;;5045113;28;20868;-67
2023/10/30 12:16:47;;;;;;;9.90;9.70;;;24.20;90.30;;;;;;5052691;28;20468;-67
2023/10/30 12:19:15;;;;;;;10.87;10.67;;;24.20;90.10;;;;;;5052856;28;20503;-67
2023/10/30 12:21:42;;;;;;;11.03;10.73;;;24.20;90.10;;;;;;5052872;28;20472;-67
2023/10/30 12:24:11;;;;;;;10.30;10.10;;;24.30;90.20;;;;;;5052747;28;20460;-66
2023/10/30 12:26:41;;;;;;;10.27;10.07;;;24.30;90.20;;;;;;5052695;28;20871;-66
2023/10/30 12:29:08;;;;;;;10.47;10.27;;;24.30;90.10;;;;;;5052432;28;20465;-67
2023/10/30 12:31:36;;;;;;;9.80;9.60;;;24.30;90.10;;;;;;5052638;28;20800;-67
2023/10/30 12:34:14;;;;;;;10.17;9.97;;;24.30;90.10;;;;;;5052293;28;20466;-67
2023/10/30 12:36:41;;;;;;;9.20;9.00;;;24.30;90.10;;;;;;5052285;28;20455;-68
2023/10/30 12:39:17;;;;;;;9.27;8.97;;;24.30;90.10;;;;;;5052155;28;20507;-67
2023/10/30 12:41:44;;;;;;;9.53;9.33;;;24.30;90.10;;;;;;5052195;28;20444;-67